Time;durP1;ratioP1;P1;durP2;ratioP2;P2;SDS_P1;SDS_P2;PMS_P1;PMS_P2;Temp;Humidity;BMP_temperature;BMP_pressure;BME280_temperature;BME280_humidity;BME280_pressure;Samples;Min_cycle;Max_cycle;Signal;HPM_P1;HPM_P2
2021/07/03 00:02:24;;;;;;;;;;;;;;;15.70;100.00;100918.53;5073195;28;20033;-73
2021/07/03 00:04:50;;;;;;;;;;;;;;;15.63;100.00;100917.44;5073417;28;20024;-73
2021/07/03 00:07:17;;;;;;;;;;;;;;;15.57;100.00;100917.03;5072927;28;20409;-73
2021/07/03 00:09:43;;;;;;;;;;;;;;;15.51;100.00;100924.97;5073115;28;19943;-73
2021/07/03 00:12:10;;;;;;;;;;;;;;;15.47;100.00;100921.66;5073272;28;20030;-73
2021/07/03 00:14:37;;;;;;;;;;;;;;;15.40;100.00;100926.88;5072993;28;19925;-73
2021/07/03 00:17:03;;;;;;;;;;;;;;;15.35;100.00;100922.91;5073174;28;19948;-73
2021/07/03 00:19:31;;;;;;;;;;;;;;;15.30;100.00;100926.09;5072830;28;19955;-73
2021/07/03 00:21:57;;;;;;;;;;;;;;;15.21;100.00;100916.06;5073102;28;19970;-73
2021/07/03 00:24:24;;;;;;;;;;;;;;;15.22;100.00;100923.25;5072942;28;19994;-73
2021/07/03 00:26:50;;;;;;;;;;;;;;;15.17;100.00;100928.31;5072604;28;19920;-73
2021/07/03 00:29:17;;;;;;;;;;;;;;;15.12;100.00;100939.69;5072709;28;19924;-73
2021/07/03 00:31:43;;;;;;;;;;;;;;;15.05;100.00;100936.69;5072555;28;19925;-73
2021/07/03 00:34:09;;;;;;;;;;;;;;;15.04;100.00;100942.31;5073519;28;19920;-73
2021/07/03 00:36:37;;;;;;;;;;;;;;;15.00;100.00;100941.72;5074471;28;20426;-73
2021/07/03 00:39:04;;;;;;;;;;;;;;;14.96;100.00;100945.78;5075266;28;19920;-73
2021/07/03 00:41:30;;;;;;;;;;;;;;;14.88;100.00;100946.53;5072679;28;20283;-73
2021/07/03 00:43:56;;;;;;;;;;;;;;;14.88;100.00;100948.38;5072619;28;20019;-73
2021/07/03 00:46:23;;;;;;;;;;;;;;;14.81;100.00;100953.56;5037943;28;20279;-73
2021/07/03 00:48:49;;;;;;;;;;;;;;;14.79;100.00;100950.16;5072220;28;19935;-73
2021/07/03 00:51:20;;;;;;;;;;;;;;;14.73;100.00;100956.19;5054588;28;20304;-73
2021/07/03 00:53:47;;;;;;;;;;;;;;;14.67;100.00;100964.97;5037828;28;19921;-73
2021/07/03 00:56:15;;;;;;;;;;;;;;;14.65;100.00;100967.00;5054331;28;20011;-73
2021/07/03 00:58:41;;;;;;;;;;;;;;;14.62;100.00;100967.22;5054370;28;20193;-73
2021/07/03 01:01:08;;;;;;;;;;;;;;;14.56;100.00;100966.81;5054263;28;19924;-73
2021/07/03 01:03:34;;;;;;;;;;;;;;;14.57;100.00;100963.06;5053526;28;20046;-73
2021/07/03 01:06:01;;;;;;;;;;;;;;;14.56;100.00;100965.94;5054380;28;19927;-72
2021/07/03 01:08:28;;;;;;;;;;;;;;;14.54;100.00;100963.38;5053944;28;20463;-73
2021/07/03 01:10:56;;;;;;;;;;;;;;;14.50;100.00;100972.84;5054100;28;19943;-73
2021/07/03 01:13:28;;;;;;;;;;;;;;;14.50;100.00;100967.38;5053827;28;20376;-73
2021/07/03 01:15:57;;;;;;;;;;;;;;;14.46;100.00;100962.38;5053990;28;20385;-73
2021/07/03 01:18:24;;;;;;;;;;;;;;;14.41;100.00;100960.06;5053819;28;19946;-73
2021/07/03 01:20:52;;;;;;;;;;;;;;;14.37;100.00;100956.75;5054073;28;19957;-73
2021/07/03 01:23:20;;;;;;;;;;;;;;;14.36;100.00;100965.09;5071703;28;19928;-73
2021/07/03 01:25:47;;;;;;;;;;;;;;;14.31;100.00;100961.91;5071584;28;19989;-73
2021/07/03 01:28:13;;;;;;;;;;;;;;;14.30;100.00;100960.22;5071581;28;19973;-73
2021/07/03 01:30:43;;;;;;;;;;;;;;;14.28;100.00;100964.94;5071367;28;19966;-73
2021/07/03 01:33:12;;;;;;;;;;;;;;;14.23;100.00;100968.13;5053849;28;20429;-73
2021/07/03 01:35:41;;;;;;;;;;;;;;;14.17;100.00;100961.34;5053641;28;20373;-73
2021/07/03 01:38:18;;;;;;;;;;;;;;;14.14;100.00;100963.50;5071482;28;20391;-72
2021/07/03 01:40:46;;;;;;;;;;;;;;;14.08;100.00;100956.72;5053729;28;20554;-72
2021/07/03 01:43:18;;;;;;;;;;;;;;;14.06;100.00;100953.31;5053479;28;19966;-73
2021/07/03 01:45:44;;;;;;;;;;;;;;;14.03;100.00;100956.28;5053644;28;19931;-72
2021/07/03 01:48:11;;;;;;;;;;;;;;;13.98;100.00;100953.16;5052973;28;19920;-72
2021/07/03 01:50:39;;;;;;;;;;;;;;;13.95;100.00;100950.69;5053573;28;19948;-72
2021/07/03 01:53:06;;;;;;;;;;;;;;;13.92;100.00;100948.25;5053285;28;19966;-72
2021/07/03 01:55:34;;;;;;;;;;;;;;;13.88;100.00;100945.81;5053332;28;19920;-73
2021/07/03 01:58:02;;;;;;;;;;;;;;;13.87;100.00;100956.88;5071300;28;19974;-73
2021/07/03 02:00:37;;;;;;;;;;;;;;;13.83;100.00;100942.63;5053340;28;19920;-73
2021/07/03 02:03:13;;;;;;;;;;;;;;;13.78;100.00;100950.38;5053437;28;20002;-73
2021/07/03 02:05:43;;;;;;;;;;;;;;;13.75;100.00;100939.75;5053012;28;20291;-73
2021/07/03 02:08:14;;;;;;;;;;;;;;;13.73;100.00;100948.09;5053154;28;19974;-72
2021/07/03 02:10:41;;;;;;;;;;;;;;;13.68;100.00;100954.94;5053090;28;20368;-72
2021/07/03 02:13:09;;;;;;;;;;;;;;;13.63;100.00;100951.75;5053246;28;19966;-73
2021/07/03 02:15:38;;;;;;;;;;;;;;;13.61;100.00;100954.63;5052997;28;20376;-73
2021/07/03 02:18:15;;;;;;;;;;;;;;;13.58;100.00;100945.88;5052962;28;19943;-73
2021/07/03 02:20:42;;;;;;;;;;;;;;;13.54;100.00;100948.03;5052933;28;19920;-72
2021/07/03 02:23:13;;;;;;;;;;;;;;;13.53;100.00;100947.13;5052982;28;20405;-73
2021/07/03 02:25:44;;;;;;;;;;;;;;;13.48;100.00;100949.44;5053201;28;20018;-73
2021/07/03 02:28:16;;;;;;;;;;;;;;;13.46;100.00;100950.56;5070891;28;19920;-73
2021/07/03 02:30:51;;;;;;;;;;;;;;;13.41;100.00;100950.13;5071499;28;20310;-73
2021/07/03 02:33:17;;;;;;;;;;;;;;;13.40;100.00;100957.41;5054938;28;19920;-73
2021/07/03 02:35:46;;;;;;;;;;;;;;;13.40;100.00;100954.69;5052875;28;19936;-73
2021/07/03 02:38:14;;;;;;;;;;;;;;;13.39;100.00;100956.56;5052775;28;19924;-73
2021/07/03 02:40:42;;;;;;;;;;;;;;;13.35;100.00;100951.50;5052680;28;19921;-73
2021/07/03 02:43:09;;;;;;;;;;;;;;;13.35;100.00;100956.97;5070796;28;19924;-72
2021/07/03 02:45:38;;;;;;;;;;;;;;;13.31;100.00;100950.91;5052881;28;20299;-72
2021/07/03 02:48:05;;;;;;;;;;;;;;;13.33;100.00;100954.34;5052887;28;20009;-72
2021/07/03 02:50:32;;;;;;;;;;;;;;;13.36;100.00;100959.59;5070773;28;20471;-72
2021/07/03 02:53:02;;;;;;;;;;;;;;;13.37;100.00;100952.25;5052683;28;19920;-72
2021/07/03 02:55:29;;;;;;;;;;;;;;;13.37;100.00;100958.59;5052711;28;19957;-72
2021/07/03 02:57:57;;;;;;;;;;;;;;;13.35;100.00;100960.53;5052702;28;20292;-72
2021/07/03 03:00:24;;;;;;;;;;;;;;;13.34;100.00;100955.22;5052637;28;20294;-72
2021/07/03 03:02:54;;;;;;;;;;;;;;;13.36;100.00;100950.53;5074037;28;19927;-71
2021/07/03 03:05:22;;;;;;;;;;;;;;;13.38;100.00;100952.13;5067178;28;20299;-71
2021/07/03 03:07:49;;;;;;;;;;;;;;;13.38;100.00;100954.00;5060365;28;19963;-71
2021/07/03 03:10:17;;;;;;;;;;;;;;;13.40;100.00;100951.97;5073593;28;19924;-71
2021/07/03 03:12:46;;;;;;;;;;;;;;;13.40;100.00;100951.97;5090434;28;20395;-71
2021/07/03 03:15:15;;;;;;;;;;;;;;;13.38;100.00;100948.53;5052467;28;19920;-71
2021/07/03 03:17:42;;;;;;;;;;;;;;;13.39;100.00;100950.28;5072205;28;20259;-71
2021/07/03 03:20:11;;;;;;;;;;;;;;;13.38;100.00;100945.81;5071941;28;20601;-71
2021/07/03 03:22:38;;;;;;;;;;;;;;;13.37;100.00;100949.53;5072050;28;19970;-71
2021/07/03 03:25:05;;;;;;;;;;;;;;;13.34;100.00;100953.34;5089777;28;19928;-71
2021/07/03 03:27:32;;;;;;;;;;;;;;;13.34;100.00;100958.81;5092228;28;20026;-71
2021/07/03 03:29:59;;;;;;;;;;;;;;;13.33;100.00;100958.94;5093868;28;19924;-71
2021/07/03 03:32:26;;;;;;;;;;;;;;;13.33;100.00;100964.41;5075642;28;20401;-71
2021/07/03 03:34:52;;;;;;;;;;;;;;;13.36;100.00;100961.44;5075202;28;19974;-71
2021/07/03 03:37:20;;;;;;;;;;;;;;;13.37;100.00;100957.72;5093252;28;20007;-71
2021/07/03 03:39:47;;;;;;;;;;;;;;;13.40;100.00;100960.16;5075095;28;19966;-71
2021/07/03 03:42:13;;;;;;;;;;;;;;;13.42;100.00;100960.88;5094046;28;20339;-71
2021/07/03 03:44:41;;;;;;;;;;;;;;;13.44;100.00;100969.81;5075457;28;20395;-72
2021/07/03 03:47:07;;;;;;;;;;;;;;;13.48;100.00;100970.38;5085310;28;20011;-72
2021/07/03 03:49:36;;;;;;;;;;;;;;;13.51;100.00;100967.41;5064298;28;19924;-72
2021/07/03 03:52:09;;;;;;;;;;;;;;;13.53;100.00;100963.50;5074861;28;20398;-72
2021/07/03 03:54:38;;;;;;;;;;;;;;;13.58;100.00;100964.97;5075349;28;19927;-72
2021/07/03 03:59:58;;;;;;;;;;;;;;;13.63;100.00;100954.47;5059946;28;20429;-71
2021/07/03 04:02:26;;;;;;;;;;;;;;;13.65;100.00;100956.06;5075398;28;19920;-72
2021/07/03 04:04:53;;;;;;;;;;;;;;;13.68;100.00;100949.47;5074608;28;19926;-72
2021/07/03 04:07:21;;;;;;;;;;;;;;;13.74;100.00;100948.94;5075328;28;19924;-72
2021/07/03 04:09:51;;;;;;;;;;;;;;;13.74;100.00;100957.13;5074970;28;19926;-71
2021/07/03 04:12:18;;;;;;;;;;;;;;;13.74;100.00;100959.84;5075247;28;19927;-72
2021/07/03 04:14:45;;;;;;;;;;;;;;;13.79;100.00;100960.28;5092763;28;20449;-71
2021/07/03 04:17:11;;;;;;;;;;;;;;;13.85;100.00;100961.59;5092890;28;20340;-71
2021/07/03 04:19:37;;;;;;;;;;;;;;;13.87;100.00;100957.72;5092711;28;19920;-71
2021/07/03 04:22:04;;;;;;;;;;;;;;;13.99;100.00;100963.03;5092850;28;19920;-71
2021/07/03 04:24:31;;;;;;;;;;;;;;;14.02;100.00;100960.06;5091930;28;19924;-71
2021/07/03 04:26:58;;;;;;;;;;;;;;;14.10;100.00;100959.34;5090567;28;20371;-71
2021/07/03 04:29:24;;;;;;;;;;;;;;;14.18;100.00;100959.50;5074286;28;19924;-71
2021/07/03 04:31:51;;;;;;;;;;;;;;;14.22;100.00;100952.75;5092631;28;20456;-70
2021/07/03 04:34:17;;;;;;;;;;;;;;;14.30;100.00;100952.88;5092387;28;20009;-71
2021/07/03 04:36:44;;;;;;;;;;;;;;;14.40;100.00;100950.13;5092280;28;19920;-71
2021/07/03 04:39:10;;;;;;;;;;;;;;;14.50;100.00;100947.41;5091592;28;19984;-70
2021/07/03 04:41:37;;;;;;;;;;;;;;;14.59;100.00;100948.41;5091713;28;20416;-72
2021/07/03 04:44:06;;;;;;;;;;;;;;;14.65;100.00;100940.53;5092441;28;19923;-73
2021/07/03 04:46:32;;;;;;;;;;;;;;;14.68;100.00;100937.47;5092024;28;19996;-72
2021/07/03 04:48:59;;;;;;;;;;;;;;;14.79;100.00;100938.34;5092792;28;20430;-70
2021/07/03 04:51:25;;;;;;;;;;;;;;;14.80;100.00;100934.59;5057907;28;19973;-70
2021/07/03 04:53:51;;;;;;;;;;;;;;;14.81;100.00;100930.88;5092494;28;20391;-70
2021/07/03 04:56:18;;;;;;;;;;;;;;;14.87;100.00;100933.00;5090786;28;19965;-70
2021/07/03 04:58:45;;;;;;;;;;;;;;;14.90;100.00;100929.97;5073443;28;19920;-71
2021/07/03 05:01:13;;;;;;;;;;;;;;;14.98;100.00;100934.69;5092210;28;19924;-70
2021/07/03 05:03:39;;;;;;;;;;;;;;;15.06;100.00;100934.81;5091986;28;19927;-70
2021/07/03 05:06:05;;;;;;;;;;;;;;;15.10;100.00;100936.25;5092255;28;19920;-69
2021/07/03 05:08:32;;;;;;;;;;;;;;;15.20;100.00;100936.19;5092168;28;19924;-71
2021/07/03 05:10:58;;;;;;;;;;;;;;;15.31;100.00;100930.56;5092306;28;19973;-71
2021/07/03 05:13:24;;;;;;;;;;;;;;;15.47;100.00;100929.88;5092080;28;19928;-71
2021/07/03 05:15:52;;;;;;;;;;;;;;;15.67;100.00;100927.94;5092230;28;19919;-71
2021/07/03 05:18:19;;;;;;;;;;;;;;;15.78;100.00;100917.75;5092258;28;19920;-71
2021/07/03 05:20:46;;;;;;;;;;;;;;;15.98;100.00;100924.00;5092100;28;20452;-71
2021/07/03 05:23:12;;;;;;;;;;;;;;;16.10;100.00;100921.88;5092000;28;19928;-71
2021/07/03 05:25:40;;;;;;;;;;;;;;;16.24;100.00;100915.88;5091871;28;19927;-71
2021/07/03 05:28:06;;;;;;;;;;;;;;;16.45;100.00;100915.53;5091755;28;19928;-71
2021/07/03 05:30:33;;;;;;;;;;;;;;;16.71;100.00;100918.28;5091806;28;19928;-71
2021/07/03 05:32:59;;;;;;;;;;;;;;;16.93;100.00;100913.34;5091742;28;19920;-69
2021/07/03 05:35:27;;;;;;;;;;;;;;;16.98;100.00;100911.00;5091788;28;19920;-69
2021/07/03 05:37:53;;;;;;;;;;;;;;;16.99;100.00;100898.13;5091709;28;19924;-71
2021/07/03 05:40:19;;;;;;;;;;;;;;;17.20;100.00;100903.22;5091651;28;19973;-71
2021/07/03 05:42:46;;;;;;;;;;;;;;;17.29;100.00;100891.25;5091427;28;19923;-70
2021/07/03 05:45:14;;;;;;;;;;;;;;;17.44;100.00;100893.34;5091589;28;19924;-70
2021/07/03 05:47:41;;;;;;;;;;;;;;;17.52;100.00;100888.75;5091724;28;19963;-70
2021/07/03 05:50:07;;;;;;;;;;;;;;;17.66;100.00;100892.75;5091042;28;19963;-70
2021/07/03 05:52:35;;;;;;;;;;;;;;;17.90;100.00;100891.97;5091605;28;19984;-70
2021/07/03 05:55:01;;;;;;;;;;;;;;;17.99;100.00;100892.00;5091492;28;20280;-70
2021/07/03 05:57:28;;;;;;;;;;;;;;;18.12;100.00;100888.75;5091308;28;19974;-70
2021/07/03 05:59:54;;;;;;;;;;;;;;;18.24;100.00;100885.50;5091198;28;20333;-70
2021/07/03 06:02:21;;;;;;;;;;;;;;;18.38;100.00;100875.69;5091494;28;19924;-71
2021/07/03 06:04:47;;;;;;;;;;;;;;;18.46;100.00;100874.84;5091475;28;19974;-70
2021/07/03 06:07:13;;;;;;;;;;;;;;;18.83;100.00;100880.81;5091295;28;19924;-70
2021/07/03 06:09:41;;;;;;;;;;;;;;;19.02;100.00;100871.34;5091379;28;19973;-71
2021/07/03 06:12:07;;;;;;;;;;;;;;;19.19;100.00;100864.75;5091450;28;19923;-70
2021/07/03 06:14:33;;;;;;;;;;;;;;;19.60;100.00;100863.66;5091230;28;20340;-70
2021/07/03 06:17:00;;;;;;;;;;;;;;;19.65;100.00;100857.63;5090826;28;20402;-70
2021/07/03 06:19:26;;;;;;;;;;;;;;;19.91;100.00;100851.81;5091052;28;19970;-71
2021/07/03 06:21:52;;;;;;;;;;;;;;;20.11;100.00;100856.81;5091328;28;19977;-70
2021/07/03 06:24:19;;;;;;;;;;;;;;;20.48;100.00;100858.75;5091604;28;19920;-71
2021/07/03 06:26:47;;;;;;;;;;;;;;;20.44;100.00;100854.63;5091060;28;19931;-71
2021/07/03 06:29:13;;;;;;;;;;;;;;;20.71;100.00;100860.63;5091062;28;19984;-70
2021/07/03 06:31:40;;;;;;;;;;;;;;;20.86;100.00;100852.38;5091001;28;20291;-70
2021/07/03 06:34:06;;;;;;;;;;;;;;;21.08;100.00;100856.06;5087858;28;19974;-71
2021/07/03 06:36:32;;;;;;;;;;;;;;;21.12;100.00;100849.13;5091687;28;19924;-71
2021/07/03 06:38:59;;;;;;;;;;;;;;;21.25;100.00;100851.22;5090970;28;19919;-71
2021/07/03 06:41:25;;;;;;;;;;;;;;;21.44;100.00;100849.75;5090966;28;20342;-71
2021/07/03 06:43:52;;;;;;;;;;;;;;;21.74;100.00;100850.56;5091001;28;19985;-71
2021/07/03 06:46:19;;;;;;;;;;;;;;;22.08;100.00;100857.28;5090959;28;19920;-68
2021/07/03 06:48:45;;;;;;;;;;;;;;;21.94;100.00;100855.47;5090813;28;20008;-70
2021/07/03 06:51:11;;;;;;;;;;;;;;;22.09;100.00;100858.16;5090549;28;19973;-70
2021/07/03 06:53:38;;;;;;;;;;;;;;;22.07;100.00;100857.47;5090839;28;19920;-69
2021/07/03 06:56:04;;;;;;;;;;;;;;;22.29;100.00;100857.47;5090910;28;19924;-69
2021/07/03 06:58:31;;;;;;;;;;;;;;;22.76;100.00;100857.91;5090675;28;20410;-69
2021/07/03 07:00:58;;;;;;;;;;;;;;;22.95;100.00;100857.16;5090764;28;19920;-69
2021/07/03 07:03:25;;;;;;;;;;;;;;;22.60;100.00;100859.06;5076607;28;19993;-69
2021/07/03 07:05:51;;;;;;;;;;;;;;;22.62;100.00;100860.56;5094784;28;20018;-70
2021/07/03 07:08:17;;;;;;;;;;;;;;;22.32;100.00;100852.41;5094083;28;19965;-69
2021/07/03 07:10:44;;;;;;;;;;;;;;;22.92;100.00;100857.56;5094557;28;19920;-69
2021/07/03 07:13:10;;;;;;;;;;;;;;;23.30;100.00;100848.00;5094631;28;19965;-69
2021/07/03 07:15:36;;;;;;;;;;;;;;;23.51;100.00;100844.25;5094305;28;19920;-69
2021/07/03 07:18:04;;;;;;;;;;;;;;;23.94;100.00;100838.44;5094286;28;19985;-69
2021/07/03 07:20:30;;;;;;;;;;;;;;;23.53;100.00;100836.59;5094319;28;20008;-69
2021/07/03 07:22:57;;;;;;;;;;;;;;;23.47;100.00;100843.81;5094406;28;19958;-69
2021/07/03 07:25:23;;;;;;;;;;;;;;;23.67;100.00;100843.03;5094250;28;19924;-69
2021/07/03 07:27:49;;;;;;;;;;;;;;;23.55;100.00;100846.41;5093858;28;20440;-70
2021/07/03 07:30:18;;;;;;;;;;;;;;;23.56;100.00;100842.56;5093927;28;19920;-69
2021/07/03 07:32:45;;;;;;;;;;;;;;;23.78;100.00;100834.09;5094183;28;19920;-69
2021/07/03 07:35:12;;;;;;;;;;;;;;;23.95;100.00;100842.06;5093926;28;19996;-69
2021/07/03 07:37:39;;;;;;;;;;;;;;;23.43;100.00;100839.75;5094063;28;19919;-69
2021/07/03 07:40:06;;;;;;;;;;;;;;;23.28;100.00;100836.31;5094058;28;19943;-69
2021/07/03 07:42:32;;;;;;;;;;;;;;;23.61;100.00;100841.97;5093837;28;19951;-69
2021/07/03 07:44:58;;;;;;;;;;;;;;;23.56;100.00;100842.56;5094159;28;19996;-69
2021/07/03 07:47:25;;;;;;;;;;;;;;;23.70;100.00;100848.16;5075270;28;19966;-69
2021/07/03 07:49:51;;;;;;;;;;;;;;;23.62;100.00;100848.34;5093834;28;20276;-69
2021/07/03 07:52:18;;;;;;;;;;;;;;;23.90;100.00;100838.03;5093562;28;19928;-69
2021/07/03 07:54:45;;;;;;;;;;;;;;;23.99;100.00;100838.66;5093758;28;19965;-69
2021/07/03 07:57:11;;;;;;;;;;;;;;;24.87;100.00;100836.75;5093386;28;19924;-69
2021/07/03 07:59:37;;;;;;;;;;;;;;;24.87;100.00;100840.38;5093402;28;19924;-69
2021/07/03 08:02:04;;;;;;;;;;;;;;;24.99;100.00;100837.78;5093812;28;19970;-69
2021/07/03 08:04:30;;;;;;;;;;;;;;;24.79;100.00;100828.66;5093244;28;20023;-69
2021/07/03 08:06:56;;;;;;;;;;;;;;;24.85;100.00;100834.19;5093326;28;19989;-69
2021/07/03 08:09:24;;;;;;;;;;;;;;;25.15;100.00;100828.13;5093016;28;19985;-69
2021/07/03 08:11:50;;;;;;;;;;;;;;;24.81;100.00;100832.91;5093181;28;19919;-69
2021/07/03 08:14:17;;;;;;;;;;;;;;;24.91;100.00;100824.16;5074929;28;19931;-69
2021/07/03 08:16:43;;;;;;;;;;;;;;;25.06;100.00;100835.81;5092988;28;19920;-69
2021/07/03 08:19:09;;;;;;;;;;;;;;;24.56;100.00;100827.16;5092974;28;19920;-69
2021/07/03 08:21:35;;;;;;;;;;;;;;;23.98;100.00;100831.41;5093148;28;19978;-69
2021/07/03 08:24:02;;;;;;;;;;;;;;;24.63;100.00;100830.81;5092815;28;19919;-69
2021/07/03 08:26:29;;;;;;;;;;;;;;;25.34;100.00;100817.19;5092642;28;19923;-69
2021/07/03 08:28:56;;;;;;;;;;;;;;;26.54;100.00;100830.28;5074057;28;19928;-69
2021/07/03 08:31:22;;;;;;;;;;;;;;;26.75;96.85;100835.69;5091278;28;19965;-69
2021/07/03 08:33:48;;;;;;;;;;;;;;;26.09;95.37;100832.41;5092664;28;20371;-68
2021/07/03 08:36:15;;;;;;;;;;;;;;;25.63;98.34;100826.88;5092278;28;20437;-74
2021/07/03 08:38:41;;;;;;;;;;;;;;;25.68;99.50;100831.75;5088703;28;19955;-74
2021/07/03 08:41:08;;;;;;;;;;;;;;;25.70;99.30;100824.06;5092936;28;19920;-74
2021/07/03 08:43:35;;;;;;;;;;;;;;;25.48;98.48;100821.63;5092360;28;19924;-73
2021/07/03 08:46:02;;;;;;;;;;;;;;;25.99;98.85;100818.94;5092647;28;19924;-74
2021/07/03 08:48:28;;;;;;;;;;;;;;;25.54;100.00;100819.88;5074285;28;20398;-73
2021/07/03 08:50:57;;;;;;;;;;;;;;;24.93;100.00;100818.38;5092342;28;19924;-74
2021/07/03 08:53:24;;;;;;;;;;;;;;;25.01;100.00;100820.91;5092442;28;19924;-73
2021/07/03 08:55:51;;;;;;;;;;;;;;;25.81;96.76;100820.56;5092590;28;19920;-73
2021/07/03 08:58:17;;;;;;;;;;;;;;;26.83;92.05;100819.56;5092120;28;19924;-74
2021/07/03 09:00:47;;;;;;;;;;;;;;;26.68;90.70;100814.28;5092224;28;19924;-74
2021/07/03 09:03:14;;;;;;;;;;;;;;;24.78;99.96;100811.13;5092049;28;19943;-72
2021/07/03 09:05:40;;;;;;;;;;;;;;;24.06;100.00;100817.38;5092463;28;19920;-75
2021/07/03 09:08:08;;;;;;;;;;;;;;;24.17;100.00;100817.78;5092292;28;19949;-74
2021/07/03 09:10:36;;;;;;;;;;;;;;;25.27;100.00;100814.41;5092271;28;20310;-75
2021/07/03 09:13:03;;;;;;;;;;;;;;;25.90;99.86;100810.88;5092299;28;20299;-75
2021/07/03 09:15:31;;;;;;;;;;;;;;;26.37;98.62;100815.25;5092185;28;19989;-74
2021/07/03 09:18:00;;;;;;;;;;;;;;;26.03;96.49;100806.31;5091690;28;19920;-74
2021/07/03 09:20:30;;;;;;;;;;;;;;;25.12;98.18;100805.47;5091955;28;19924;-75
2021/07/03 09:23:08;;;;;;;;;;;;;;;24.76;100.00;100810.53;5092027;28;19946;-74
2021/07/03 09:25:35;;;;;;;;;;;;;;;24.97;100.00;100805.75;5091245;28;20007;-74
2021/07/03 09:28:05;;;;;;;;;;;;;;;24.28;100.00;100794.09;5091847;28;20405;-74
2021/07/03 09:30:32;;;;;;;;;;;;;;;24.85;100.00;100788.91;5091751;28;19973;-74
2021/07/03 09:33:00;;;;;;;;;;;;;;;24.99;100.00;100806.41;5073790;28;20423;-73
2021/07/03 09:35:26;;;;;;;;;;;;;;;24.04;100.00;100810.31;5091709;28;19924;-73
2021/07/03 09:37:59;;;;;;;;;;;;;;;23.76;100.00;100805.75;5091351;28;19993;-73
2021/07/03 09:40:28;;;;;;;;;;;;;;;23.05;100.00;100807.81;5091423;28;20332;-73
2021/07/03 09:42:54;;;;;;;;;;;;;;;22.76;100.00;100805.34;5073448;28;20354;-73
2021/07/03 09:45:24;;;;;;;;;;;;;;;22.22;100.00;100802.13;5091633;28;19920;-74
2021/07/03 09:47:50;;;;;;;;;;;;;;;22.21;100.00;100814.25;5073497;28;20378;-73
2021/07/03 09:50:22;;;;;;;;;;;;;;;21.87;100.00;100811.19;5091249;28;20420;-74
2021/07/03 09:52:48;;;;;;;;;;;;;;;22.02;100.00;100813.00;5091519;28;19977;-74
2021/07/03 09:55:14;;;;;;;;;;;;;;;21.92;100.00;100806.97;5073171;28;19920;-73
2021/07/03 09:57:41;;;;;;;;;;;;;;;22.02;100.00;100801.94;5091301;28;20416;-73
2021/07/03 10:00:10;;;;;;;;;;;;;;;21.99;100.00;100799.59;5073241;28;19974;-73
2021/07/03 10:02:37;;;;;;;;;;;;;;;21.98;100.00;100801.50;5091233;28;19924;-73
2021/07/03 10:05:03;;;;;;;;;;;;;;;22.07;100.00;100799.44;5073381;28;19949;-73
2021/07/03 10:07:35;;;;;;;;;;;;;;;21.82;100.00;100797.09;5090712;28;19920;-73
2021/07/03 10:10:04;;;;;;;;;;;;;;;21.87;100.00;100805.66;5091357;28;20391;-74
2021/07/03 10:12:31;;;;;;;;;;;;;;;21.72;100.00;100799.31;5072614;28;19920;-73
2021/07/03 10:14:58;;;;;;;;;;;;;;;21.79;100.00;100803.00;5091078;28;19973;-73
2021/07/03 10:17:25;;;;;;;;;;;;;;;21.89;100.00;100800.78;5090993;28;19969;-73
2021/07/03 10:19:52;;;;;;;;;;;;;;;22.20;100.00;100804.25;5091226;28;19920;-73
2021/07/03 10:22:19;;;;;;;;;;;;;;;22.84;100.00;100788.56;5090947;28;19924;-73
2021/07/03 10:24:49;;;;;;;;;;;;;;;24.22;100.00;100791.09;5091164;28;19942;-73
2021/07/03 10:27:17;;;;;;;;;;;;;;;25.11;100.00;100776.00;5089763;28;19992;-73
2021/07/03 10:29:44;;;;;;;;;;;;;;;25.11;100.00;100787.13;5090351;28;20371;-73
2021/07/03 10:32:18;;;;;;;;;;;;;;;24.56;100.00;100793.88;5090647;28;20019;-73
2021/07/03 10:34:45;;;;;;;;;;;;;;;24.22;100.00;100791.09;5070877;28;19970;-73
2021/07/03 10:37:11;;;;;;;;;;;;;;;24.85;100.00;100787.00;5075583;28;19955;-73
2021/07/03 10:39:37;;;;;;;;;;;;;;;25.53;94.42;100780.09;5095053;28;20405;-74
2021/07/03 10:42:05;;;;;;;;;;;;;;;26.75;96.74;100772.53;5085221;28;19921;-74
2021/07/03 10:44:39;;;;;;;;;;;;;;;26.89;92.26;100787.97;5077543;28;19920;-74
2021/07/03 10:47:06;;;;;;;;;;;;;;;26.09;91.49;100783.19;5090591;28;19954;-73
2021/07/03 10:49:35;;;;;;;;;;;;;;;25.22;98.52;100776.16;5076610;28;19947;-72
2021/07/03 10:52:09;;;;;;;;;;;;;;;25.01;100.00;100776.47;5094741;28;19920;-73
2021/07/03 10:54:36;;;;;;;;;;;;;;;25.77;93.09;100776.75;5094687;28;20353;-73
2021/07/03 10:57:04;;;;;;;;;;;;;;;26.76;87.91;100770.59;5076101;28;19920;-73
2021/07/03 10:59:34;;;;;;;;;;;;;;;27.47;83.08;100766.31;5094367;28;19920;-73
2021/07/03 11:02:06;;;;;;;;;;;;;;;27.30;78.32;100757.72;5094459;28;19920;-73
2021/07/03 11:04:43;;;;;;;;;;;;;;;27.82;71.25;100761.91;5094488;28;19967;-73
2021/07/03 11:07:11;;;;;;;;;;;;;;;27.73;67.92;100759.47;5093699;28;19954;-74
2021/07/03 11:09:38;;;;;;;;;;;;;;;27.99;67.26;100754.53;5094407;28;20030;-73
2021/07/03 11:12:11;;;;;;;;;;;;;;;27.39;75.64;100755.47;5094089;28;20071;-73
2021/07/03 11:14:41;;;;;;;;;;;;;;;27.13;81.05;100759.44;5076264;28;19927;-73
2021/07/03 11:17:07;;;;;;;;;;;;;;;26.88;79.61;100752.88;5093896;28;19920;-74
2021/07/03 11:19:34;;;;;;;;;;;;;;;26.31;83.00;100763.28;5094325;28;20000;-73
2021/07/03 11:22:06;;;;;;;;;;;;;;;26.19;86.22;100755.72;5093937;28;20041;-73
2021/07/03 11:24:39;;;;;;;;;;;;;;;25.77;87.69;100751.75;5094073;28;19920;-73
2021/07/03 11:27:05;;;;;;;;;;;;;;;24.98;85.74;100751.94;5093830;28;19959;-73
2021/07/03 11:29:31;;;;;;;;;;;;;;;24.83;92.81;100741.94;5094166;28;19920;-73
2021/07/03 11:32:08;;;;;;;;;;;;;;;25.16;100.00;100753.97;5093671;28;19989;-73
2021/07/03 11:34:35;;;;;;;;;;;;;;;25.38;96.12;100743.44;5093860;28;20143;-73
2021/07/03 11:37:03;;;;;;;;;;;;;;;25.51;91.27;100748.91;5093567;28;19920;-72
2021/07/03 11:39:29;;;;;;;;;;;;;;;25.24;89.36;100742.63;5093261;28;19931;-73
2021/07/03 11:42:00;;;;;;;;;;;;;;;25.09;93.41;100744.84;5093640;28;19923;-73
2021/07/03 11:44:26;;;;;;;;;;;;;;;24.89;97.21;100740.22;5092280;28;20417;-72
2021/07/03 11:46:53;;;;;;;;;;;;;;;24.79;96.45;100739.84;5092847;28;19973;-71
2021/07/03 11:49:21;;;;;;;;;;;;;;;24.67;99.86;100743.28;5093645;28;19920;-72
2021/07/03 11:51:58;;;;;;;;;;;;;;;25.32;100.00;100738.72;5057649;28;19955;-72
2021/07/03 11:54:24;;;;;;;;;;;;;;;26.42;97.73;100733.88;5084294;28;20353;-72
2021/07/03 11:56:56;;;;;;;;;;;;;;;27.22;84.50;100724.59;5055226;28;20386;-73
2021/07/03 11:59:22;;;;;;;;;;;;;;;27.90;74.37;100728.94;5088545;28;20344;-73
2021/07/03 12:01:49;;;;;;;;;;;;;;;27.88;87.75;100717.19;5093183;28;19970;-73
2021/07/03 12:04:15;;;;;;;;;;;;;;;27.29;73.94;100718.94;5089447;28;19924;-73
2021/07/03 12:06:43;;;;;;;;;;;;;;;27.94;89.24;100720.97;5092991;28;19920;-73
2021/07/03 12:09:11;;;;;;;;;;;;;;;27.04;81.02;100717.13;5074955;28;19920;-74
2021/07/03 12:11:38;;;;;;;;;;;;;;;26.38;89.46;100730.72;5093406;28;19924;-74
2021/07/03 12:14:12;;;;;;;;;;;;;;;26.30;91.75;100731.00;5093089;28;20044;-74
2021/07/03 12:16:38;;;;;;;;;;;;;;;26.67;78.80;100711.53;5084743;28;19963;-74
2021/07/03 12:19:05;;;;;;;;;;;;;;;26.84;73.59;100707.06;5092464;28;19973;-72
2021/07/03 12:21:34;;;;;;;;;;;;;;;27.31;73.31;100711.19;5092438;28;19920;-73
2021/07/03 12:24:03;;;;;;;;;;;;;;;27.06;66.52;100698.25;5059454;28;20350;-72
2021/07/03 12:26:30;;;;;;;;;;;;;;;27.00;60.58;100697.22;5082159;28;19924;-72
2021/07/03 12:28:58;;;;;;;;;;;;;;;27.81;58.62;100702.50;5092798;28;20341;-71
2021/07/03 12:31:25;;;;;;;;;;;;;;;27.59;59.93;100704.16;5092305;28;19924;-71
2021/07/03 12:34:00;;;;;;;;;;;;;;;27.11;59.09;100701.19;5093005;28;19981;-71